Time;durP1;ratioP1;P1;durP2;ratioP2;P2;SDS_P1;SDS_P2;PMS_P1;PMS_P2;Temp;Humidity;BMP_temperature;BMP_pressure;BME280_temperature;BME280_humidity;BME280_pressure;Samples;Min_cycle;Max_cycle;Signal;HPM_P1;HPM_P2
2021/12/14 00:02:28;;;;;;;;;133.00;103.75;;;;;7.17;44.95;99844.59;6202016;28;97258;-65
2021/12/14 00:05:34;;;;;;;;;131.00;109.20;;;;;7.20;44.89;99843.38;6214448;28;97984;-63
2021/12/14 00:08:48;;;;;;;;;124.20;103.60;;;;;7.18;45.44;99840.06;6195007;28;96492;-63
2021/12/14 00:12:09;;;;;;;;;123.50;105.00;;;;;7.15;45.50;99846.59;6170458;28;97331;-63
2021/12/14 00:15:16;;;;;;;;;124.50;104.75;;;;;7.18;45.23;99832.88;6211138;28;98277;-63
2021/12/14 00:18:20;;;;;;;;;129.00;109.80;;;;;7.15;45.42;99824.31;6194609;28;96571;-63
2021/12/14 00:21:30;;;;;;;;;128.75;107.25;;;;;7.18;45.54;99838.22;6186824;28;97525;-63
2021/12/14 00:24:35;;;;;;;;;125.00;104.00;;;;;7.23;46.00;99830.44;6167990;28;96649;-63
2021/12/14 00:27:39;;;;;;;;;126.50;104.50;;;;;7.26;46.12;99829.28;6211937;28;97197;-64
2021/12/14 00:30:46;;;;;;;;;129.00;104.60;;;;;7.30;46.26;99827.91;6211668;28;97079;-64
2021/12/14 00:33:52;;;;;;;;;122.00;99.20;;;;;7.26;46.00;99831.97;6186416;28;98164;-64
2021/12/14 00:36:56;;;;;;;;;139.20;114.80;;;;;7.24;45.20;99831.28;6164722;28;96618;-64
2021/12/14 00:40:01;;;;;;;;;139.40;117.00;;;;;7.21;44.63;99831.66;6171609;28;97462;-63
2021/12/14 00:43:06;;;;;;;;;143.00;117.00;;;;;7.15;43.61;99832.34;6176864;28;97047;-63
2021/12/14 00:46:13;;;;;;;;;142.40;113.80;;;;;7.06;43.42;99844.16;6194263;28;99381;-64
2021/12/14 00:49:17;;;;;;;;;136.40;113.00;;;;;6.95;43.54;99846.22;6195863;28;97513;-64
2021/12/14 00:52:21;;;;;;;;;138.50;112.00;;;;;6.89;43.05;99848.78;6182417;28;97309;-63
2021/12/14 00:55:28;;;;;;;;;124.40;103.00;;;;;6.79;43.00;99843.59;6164044;28;97913;-63
2021/12/14 00:58:34;;;;;;;;;124.60;107.00;;;;;6.72;43.04;99841.78;6163064;28;96959;-63
2021/12/14 01:01:43;;;;;;;;;132.00;110.25;;;;;6.64;43.35;99855.22;6162132;28;96988;-63
2021/12/14 01:04:50;;;;;;;;;128.50;104.75;;;;;6.65;43.34;99848.84;6184089;28;97102;-63
2021/12/14 01:07:54;;;;;;;;;123.80;105.00;;;;;6.61;42.98;99852.88;6188569;28;97473;-63
2021/12/14 01:11:05;;;;;;;;;120.20;100.20;;;;;6.53;43.02;99851.91;6186160;28;96854;-64
2021/12/14 01:14:14;;;;;;;;;117.00;97.40;;;;;6.46;43.24;99844.72;6176487;28;96766;-63
2021/12/14 01:17:38;;;;;;;;;119.50;95.75;;;;;6.41;43.01;99841.72;6188452;28;96583;-63
2021/12/14 01:20:45;;;;;;;;;118.00;95.00;;;;;6.33;42.95;99834.56;6170049;28;96990;-63
2021/12/14 01:23:59;;;;;;;;;115.00;95.00;;;;;6.26;43.48;99835.41;6147045;28;97040;-63
2021/12/14 01:27:09;;;;;;;;;111.80;93.20;;;;;6.24;43.34;99840.94;6162039;28;97103;-63
2021/12/14 01:30:20;;;;;;;;;113.00;92.80;;;;;6.24;43.66;99842.78;6161960;28;96598;-63
2021/12/14 01:33:27;;;;;;;;;110.80;94.20;;;;;6.21;43.72;99838.59;6162853;28;97793;-63
2021/12/14 01:36:38;;;;;;;;;110.25;91.00;;;;;6.17;43.82;99837.28;6162300;28;97062;-63
2021/12/14 01:39:49;;;;;;;;;118.60;96.00;;;;;6.14;44.11;99828.75;6161386;28;97459;-63
2021/12/14 01:42:53;;;;;;;;;114.00;92.80;;;;;6.07;44.25;99828.59;6165681;28;97512;-63
2021/12/14 01:45:58;;;;;;;;;121.25;96.25;;;;;6.06;44.73;99825.06;6186376;28;97401;-63
2021/12/14 01:49:07;;;;;;;;;111.80;95.80;;;;;6.13;44.74;99830.59;6172017;28;96937;-63
2021/12/14 01:52:33;;;;;;;;;112.20;90.80;;;;;6.19;44.41;99837.09;6163639;28;98988;-64
2021/12/14 01:55:38;;;;;;;;;111.60;92.60;;;;;6.19;44.43;99824.56;6185914;28;97172;-63
2021/12/14 01:58:45;;;;;;;;;113.25;95.00;;;;;6.14;44.30;99824.22;6169225;28;97542;-63
2021/12/14 02:01:57;;;;;;;;;113.00;92.50;;;;;6.07;44.43;99825.91;6153046;28;99546;-63
2021/12/14 02:05:10;;;;;;;;;109.50;91.00;;;;;6.04;44.65;99829.78;6158875;28;97203;-63
2021/12/14 02:08:17;;;;;;;;;112.60;94.00;;;;;6.05;44.68;99833.28;6159861;28;98155;-63
2021/12/14 02:11:25;;;;;;;;;111.00;91.00;;;;;6.13;44.58;99841.28;6159671;28;97593;-63
2021/12/14 02:14:29;;;;;;;;;121.60;94.20;;;;;6.15;45.26;99833.09;6154068;28;97089;-63
2021/12/14 02:17:33;;;;;;;;;111.60;94.80;;;;;6.15;44.94;99833.94;6135901;28;97215;-63
2021/12/14 02:20:38;;;;;;;;;111.40;90.20;;;;;6.08;44.98;99828.41;6137117;28;97195;-64
2021/12/14 02:23:48;;;;;;;;;115.00;99.00;;;;;6.09;45.29;99838.13;6149531;28;96734;-64
2021/12/14 02:26:53;;;;;;;;;117.75;96.25;;;;;6.15;45.65;99835.78;6184047;28;97061;-63
2021/12/14 02:30:06;;;;;;;;;112.50;95.00;;;;;6.20;45.62;99839.63;6161094;28;97204;-63
2021/12/14 02:33:14;;;;;;;;;111.80;96.40;;;;;6.26;45.70;99836.25;6168320;28;96835;-63
2021/12/14 02:36:22;;;;;;;;;118.20;96.20;;;;;6.31;45.60;99831.19;6185341;28;96442;-63
2021/12/14 02:39:46;;;;;;;;;119.40;94.80;;;;;6.34;45.22;99836.25;6164005;28;96968;-63
2021/12/14 02:42:53;;;;;;;;;110.20;88.80;;;;;6.34;44.89;99832.72;6164623;28;99046;-63
2021/12/14 02:46:06;;;;;;;;;114.00;90.50;;;;;6.35;44.88;99837.06;6185434;28;97202;-63
2021/12/14 02:49:12;;;;;;;;;115.00;90.60;;;;;6.37;44.79;99832.38;6154060;28;97672;-63
2021/12/14 02:52:24;;;;;;;;;113.40;89.80;;;;;6.40;44.85;99834.72;6152258;28;96952;-63
2021/12/14 02:55:29;;;;;;;;;115.80;94.40;;;;;6.40;44.76;99840.06;6134876;28;96623;-63
2021/12/14 02:58:33;;;;;;;;;111.80;94.40;;;;;6.38;44.90;99834.03;6140927;28;97537;-62
2021/12/14 03:01:37;;;;;;;;;116.20;95.60;;;;;6.39;45.42;99847.28;6154461;28;97331;-63
2021/12/14 03:04:43;;;;;;;;;123.00;103.00;;;;;6.41;45.29;99849.75;6149346;28;97713;-63
2021/12/14 03:07:50;;;;;;;;;124.60;101.60;;;;;6.43;45.45;99850.44;6150642;28;97385;-62
2021/12/14 03:11:09;;;;;;;;;122.25;96.75;;;;;6.46;45.34;99848.25;6161764;28;96505;-62
2021/12/14 03:14:14;;;;;;;;;116.75;96.00;;;;;6.42;45.48;99843.41;6178368;28;97672;-62
2021/12/14 03:17:18;;;;;;;;;129.60;100.00;;;;;6.27;45.48;99835.25;6182493;28;97186;-65
2021/12/14 03:20:23;;;;;;;;;127.40;101.40;;;;;6.22;46.00;99826.03;6158479;28;97495;-63
2021/12/14 03:23:30;;;;;;;;;123.00;98.00;;;;;6.12;46.56;99828.91;6162333;28;97390;-62
2021/12/14 03:26:39;;;;;;;;;122.50;95.00;;;;;6.16;46.44;99840.94;6159942;28;97333;-63
2021/12/14 03:29:43;;;;;;;;;122.60;94.80;;;;;6.16;46.78;99837.47;6145379;28;97250;-62
2021/12/14 03:32:47;;;;;;;;;117.00;89.60;;;;;6.13;46.60;99840.47;6144388;28;97768;-65
2021/12/14 03:35:53;;;;;;;;;118.00;93.00;;;;;5.96;46.96;99836.97;6184717;28;97626;-63
2021/12/14 03:39:03;;;;;;;;;119.00;95.40;;;;;5.73;47.59;99818.06;6169534;28;97053;-64
2021/12/14 03:42:13;;;;;;;;;121.00;95.00;;;;;5.89;47.45;99834.13;6146059;28;98207;-63
2021/12/14 03:45:20;;;;;;;;;119.00;93.60;;;;;5.90;47.55;99825.09;6164192;28;96703;-64
2021/12/14 03:48:29;;;;;;;;;115.20;93.80;;;;;5.90;48.12;99811.72;6165765;28;97540;-63
2021/12/14 03:51:33;;;;;;;;;121.20;95.60;;;;;5.97;48.38;99825.25;6126649;28;97046;-62
2021/12/14 03:54:42;;;;;;;;;124.25;100.75;;;;;6.04;48.76;99816.38;6149801;28;99243;-63
2021/12/14 03:57:47;;;;;;;;;128.80;101.00;;;;;6.13;48.74;99821.72;6157347;28;97025;-63
2021/12/14 04:00:56;;;;;;;;;122.20;99.40;;;;;6.21;48.41;99816.34;6168498;28;97688;-63
2021/12/14 04:04:18;;;;;;;;;126.80;99.00;;;;;6.28;48.49;99817.34;6196831;28;99413;-62
2021/12/14 04:07:22;;;;;;;;;117.60;92.80;;;;;6.28;47.99;99822.69;6167162;28;97593;-64
2021/12/14 04:10:42;;;;;;;;;120.25;91.50;;;;;6.26;47.62;99816.66;6153079;28;99405;-63
2021/12/14 04:13:50;;;;;;;;;112.40;91.40;;;;;6.19;47.76;99815.69;6175774;28;96790;-63
2021/12/14 04:17:04;;;;;;;;;108.50;89.00;;;;;6.06;47.55;99811.69;6170249;28;97265;-63
2021/12/14 04:20:13;;;;;;;;;109.80;86.60;;;;;6.01;47.00;99802.50;6154871;28;97948;-62
2021/12/14 04:23:20;;;;;;;;;106.40;84.20;;;;;5.92;47.10;99806.19;6177641;28;98582;-63
2021/12/14 04:26:27;;;;;;;;;107.00;85.00;;;;;5.93;47.00;99802.50;6196235;28;97563;-63
2021/12/14 04:29:33;;;;;;;;;106.40;87.20;;;;;5.83;47.14;99797.31;6191274;28;96881;-62
2021/12/14 04:32:40;;;;;;;;;109.40;87.80;;;;;5.96;46.89;99804.88;6172921;28;99746;-64
2021/12/14 04:35:48;;;;;;;;;109.25;86.50;;;;;5.96;47.04;99807.53;6135150;28;98347;-63
2021/12/14 04:38:57;;;;;;;;;114.75;87.00;;;;;6.00;47.07;99815.06;6146874;28;97150;-63
2021/12/14 04:52:29;;;;;;;;;105.20;85.60;;;;;6.18;47.03;99822.03;6186021;28;97503;-63
2021/12/14 04:55:33;;;;;;;;;112.00;85.20;;;;;6.20;47.08;99825.41;6146736;28;97134;-63
2021/12/14 04:58:40;;;;;;;;;106.75;86.25;;;;;6.21;46.90;99827.88;6146102;28;97689;-64
2021/12/14 05:01:47;;;;;;;;;109.20;85.40;;;;;6.21;46.70;99824.38;6140851;28;99361;-64
2021/12/14 05:05:04;;;;;;;;;107.20;86.00;;;;;6.18;46.69;99822.88;6156971;28;97495;-66
2021/12/14 05:11:30;;;;;;;;;104.60;83.00;;;;;5.96;46.62;99803.00;6137727;28;97777;-64
2021/12/14 05:14:38;;;;;;;;;106.33;83.33;;;;;6.07;46.95;99818.72;6145158;28;97242;-64
2021/12/14 05:17:46;;;;;;;;;105.00;82.60;;;;;6.00;46.93;99822.25;6152819;28;97428;-63
2021/12/14 05:20:50;;;;;;;;;102.50;83.50;;;;;5.98;47.00;99826.94;6147139;28;99450;-63
2021/12/14 05:23:56;;;;;;;;;105.60;83.00;;;;;5.93;47.08;99824.75;6162568;28;98452;-64
2021/12/14 05:27:03;;;;;;;;;104.60;83.60;;;;;6.05;47.17;99834.13;6137371;28;96512;-63
2021/12/14 05:30:17;;;;;;;;;108.80;82.60;;;;;6.15;47.31;99827.75;6139651;28;97751;-64
2021/12/14 05:33:42;;;;;;;;;102.60;82.60;;;;;6.24;46.92;99830.25;6155508;28;97106;-64
2021/12/14 05:37:19;;;;;;;;;106.50;83.25;;;;;6.20;46.82;99830.75;6154918;28;96941;-64
2021/12/14 05:40:41;;;;;;;;;101.00;84.00;;;;;6.23;46.80;99838.44;6158723;28;97825;-64
2021/12/14 05:43:43;;;;;;;;;103.00;85.67;;;;;6.22;46.77;99844.78;6171347;28;97972;-63
2021/12/14 05:47:02;;;;;;;;;95.80;79.80;;;;;6.16;46.92;99840.94;6159180;28;97138;-63
2021/12/14 05:50:30;;;;;;;;;109.60;85.00;;;;;6.05;47.42;99830.63;6139302;28;97369;-65
2021/12/14 05:53:42;;;;;;;;;103.00;84.50;;;;;6.07;47.40;99836.59;6169754;28;98490;-64
2021/12/14 05:56:46;;;;;;;;;104.60;84.20;;;;;5.99;47.51;99824.09;6147592;28;97266;-64
2021/12/14 05:59:51;;;;;;;;;108.00;83.80;;;;;5.92;47.30;99824.91;6160442;28;97107;-63
2021/12/14 06:02:55;;;;;;;;;101.60;79.60;;;;;5.94;47.35;99817.56;6161675;28;98422;-63
2021/12/14 06:06:01;;;;;;;;;100.60;83.20;;;;;5.93;47.49;99818.56;6186707;28;96995;-63
2021/12/14 06:09:11;;;;;;;;;107.50;85.00;;;;;5.95;47.36;99825.44;6174288;28;96729;-64
2021/12/14 06:12:25;;;;;;;;;109.60;81.80;;;;;5.89;47.41;99822.59;6162054;28;96864;-63
2021/12/14 06:15:31;;;;;;;;;110.00;85.40;;;;;5.92;47.37;99822.25;6157539;28;97438;-64
2021/12/14 06:18:46;;;;;;;;;103.40;80.00;;;;;6.00;47.39;99822.25;6151275;28;97547;-65
2021/12/14 06:22:08;;;;;;;;;103.00;82.00;;;;;5.95;47.39;99820.09;6126367;28;98209;-65
2021/12/14 06:25:14;;;;;;;;;106.40;83.00;;;;;5.92;47.63;99827.59;6150746;28;97549;-65
2021/12/14 06:28:23;;;;;;;;;106.25;86.50;;;;;5.93;48.08;99831.94;6138045;28;97365;-64
2021/12/14 06:31:26;;;;;;;;;110.25;85.00;;;;;5.99;48.10;99825.94;6138815;28;98233;-65
2021/12/14 06:34:31;;;;;;;;;110.00;85.00;;;;;6.01;48.15;99821.25;6144325;28;97346;-63
2021/12/14 06:38:22;;;;;;;;;106.40;88.00;;;;;6.04;48.22;99821.75;6153523;28;97421;-63
2021/12/14 06:41:25;;;;;;;;;116.00;89.00;;;;;6.12;48.28;99820.03;6136283;28;98183;-62
2021/12/14 06:44:33;;;;;;;;;114.40;91.00;;;;;6.12;48.14;99810.16;6176620;28;96666;-63
2021/12/14 06:47:36;;;;;;;;;120.50;88.00;;;;;6.23;48.32;99815.16;6168277;28;98472;-63
2021/12/14 06:50:44;;;;;;;;;120.20;87.00;;;;;6.31;48.22;99819.66;6160261;28;97506;-63
2021/12/14 06:54:07;;;;;;;;;117.40;93.80;;;;;6.34;48.39;99820.16;6161982;28;96746;-63
2021/12/14 06:57:29;;;;;;;;;121.00;91.50;;;;;6.37;48.60;99818.97;6160448;28;96510;-64
2021/12/14 07:00:41;;;;;;;;;119.40;91.00;;;;;6.43;48.44;99823.66;6159994;28;96841;-64
2021/12/14 07:03:48;;;;;;;;;114.75;93.50;;;;;6.50;48.55;99812.06;6172037;28;98266;-64
2021/12/14 07:06:56;;;;;;;;;121.60;95.00;;;;;6.60;48.30;99816.41;6184620;28;97007;-63
2021/12/14 07:10:04;;;;;;;;;109.40;91.40;;;;;6.70;48.50;99817.00;6145828;28;97095;-63
2021/12/14 07:13:14;;;;;;;;;114.20;91.00;;;;;6.78;48.45;99814.31;6164531;28;97512;-63
2021/12/14 07:16:22;;;;;;;;;112.20;91.20;;;;;6.93;48.27;99808.03;6180412;28;97361;-63
2021/12/14 07:19:41;;;;;;;;;107.00;92.00;;;;;7.17;47.69;99803.53;6160441;28;97331;-63
2021/12/14 07:22:47;;;;;;;;;113.40;89.40;;;;;7.38;46.90;99812.59;6158357;28;97516;-63
2021/12/14 07:25:56;;;;;;;;;120.60;92.20;;;;;7.68;46.18;99810.00;6183161;28;98530;-64
2021/12/14 07:28:59;;;;;;;;;114.00;93.00;;;;;7.99;45.41;99815.28;6186453;28;97079;-64
2021/12/14 07:32:04;;;;;;;;;114.00;93.25;;;;;8.27;44.64;99819.00;6177300;28;97492;-64
2021/12/14 07:35:33;;;;;;;;;109.50;91.00;;;;;8.40;44.22;99816.56;6167222;28;97171;-64
2021/12/14 07:38:42;;;;;;;;;115.25;93.00;;;;;8.35;43.94;99821.66;6152552;28;97712;-63
2021/12/14 07:41:50;;;;;;;;;111.25;87.00;;;;;8.18;44.34;99828.19;6156229;28;97760;-65
2021/12/14 07:45:02;;;;;;;;;108.00;87.25;;;;;8.07;44.33;99821.41;6184925;28;96990;-63
2021/12/14 07:48:06;;;;;;;;;105.20;87.80;;;;;7.96;44.41;99821.03;6165724;28;97320;-64
2021/12/14 07:51:12;;;;;;;;;120.40;93.00;;;;;7.86;44.39;99825.81;6143174;28;99527;-65
2021/12/14 07:54:20;;;;;;;;;111.00;90.60;;;;;7.81;44.18;99818.31;6183909;28;98042;-63
2021/12/14 07:57:28;;;;;;;;;114.75;92.25;;;;;7.70;44.36;99822.25;6213175;28;97180;-63
2021/12/14 08:00:35;;;;;;;;;111.40;89.40;;;;;7.61;44.57;99826.00;6196248;28;96437;-63
2021/12/14 08:03:38;;;;;;;;;110.00;89.40;;;;;7.57;44.56;99830.06;6200825;28;97110;-63
2021/12/14 08:06:50;;;;;;;;;109.60;90.80;;;;;7.52;44.81;99829.78;6178552;28;97390;-63
2021/12/14 08:09:54;;;;;;;;;105.67;89.33;;;;;7.44;44.88;99821.78;6189041;28;98509;-63
2021/12/14 08:13:05;;;;;;;;;105.60;85.60;;;;;7.38;45.37;99828.69;6193840;28;96973;-63
2021/12/14 08:16:09;;;;;;;;;114.00;89.00;;;;;7.41;45.92;99835.56;6188478;28;97465;-64
2021/12/14 08:19:24;;;;;;;;;113.20;86.60;;;;;7.26;45.90;99803.31;6189033;28;97496;-63
2021/12/14 08:22:32;;;;;;;;;109.80;87.40;;;;;7.44;46.00;99837.88;6171076;28;97212;-64
2021/12/14 08:25:36;;;;;;;;;113.00;90.20;;;;;7.29;45.92;99802.94;6214212;28;97419;-64
2021/12/14 08:28:49;;;;;;;;;104.80;84.80;;;;;7.24;45.61;99799.94;6184925;28;97490;-64
2021/12/14 08:31:55;;;;;;;;;107.80;85.60;;;;;7.50;45.45;99833.63;6168371;28;97518;-63
2021/12/14 08:35:03;;;;;;;;;99.80;82.20;;;;;7.19;45.65;99814.91;6183303;28;97129;-63
2021/12/14 08:38:06;;;;;;;;;111.40;84.00;;;;;7.15;46.17;99819.78;6190244;28;97482;-62
2021/12/14 08:41:16;;;;;;;;;107.20;79.80;;;;;7.06;46.47;99820.00;6185774;28;97250;-64
2021/12/14 08:44:34;;;;;;;;;105.20;83.80;;;;;7.10;46.43;99813.28;6195047;28;97160;-64
2021/12/14 08:47:42;;;;;;;;;101.80;81.00;;;;;7.12;46.54;99813.94;6184971;28;97271;-63
2021/12/14 08:50:54;;;;;;;;;107.40;84.20;;;;;7.21;46.76;99815.56;6172626;28;96855;-62
2021/12/14 08:54:01;;;;;;;;;100.20;82.00;;;;;7.31;46.55;99808.97;6169064;28;97872;-64
2021/12/14 08:57:09;;;;;;;;;99.40;79.00;;;;;7.45;46.17;99810.03;6167185;28;96507;-64
2021/12/14 09:00:19;;;;;;;;;110.60;78.80;;;;;7.53;46.13;99811.81;6151647;28;97075;-63
2021/12/14 09:03:31;;;;;;;;;102.25;79.00;;;;;7.63;45.83;99807.88;6186928;28;97459;-64
2021/12/14 09:06:39;;;;;;;;;105.40;82.40;;;;;7.61;45.80;99806.41;6188633;28;98025;-63
2021/12/14 09:09:45;;;;;;;;;108.00;82.20;;;;;7.67;45.76;99819.91;6181908;28;97056;-64
2021/12/14 09:12:52;;;;;;;;;103.00;82.20;;;;;7.68;45.93;99812.69;6194490;28;97226;-63
2021/12/14 09:16:00;;;;;;;;;101.75;80.50;;;;;7.79;45.87;99810.41;6202692;28;96955;-63
2021/12/14 09:19:09;;;;;;;;;94.60;77.00;;;;;7.91;46.01;99810.81;6184201;28;97470;-65
2021/12/14 09:22:16;;;;;;;;;101.40;77.60;;;;;8.11;45.79;99819.19;6178516;28;96741;-64
2021/12/14 09:25:25;;;;;;;;;96.75;78.50;;;;;8.30;45.54;99813.31;6168616;28;97430;-64
2021/12/14 09:28:28;;;;;;;;;97.00;76.20;;;;;8.44;45.38;99809.81;6187285;28;97465;-63
2021/12/14 09:31:36;;;;;;;;;95.40;73.20;;;;;8.58;45.02;99817.03;6167990;28;97446;-64
2021/12/14 09:34:41;;;;;;;;;94.00;77.75;;;;;8.64;44.93;99810.91;6169464;28;98302;-63
2021/12/14 09:37:47;;;;;;;;;96.00;75.00;;;;;8.65;45.11;99806.34;6170160;28;97527;-63
2021/12/14 09:40:54;;;;;;;;;96.50;77.00;;;;;8.70;44.80;99790.47;6169049;28;97413;-63
2021/12/14 09:44:04;;;;;;;;;100.20;77.20;;;;;8.82;44.73;99788.16;6185229;28;97422;-64
2021/12/14 09:47:13;;;;;;;;;89.20;73.60;;;;;8.76;44.66;99786.22;6167582;28;99789;-65
2021/12/14 09:50:22;;;;;;;;;87.25;70.50;;;;;8.77;44.61;99777.13;6183426;28;97396;-64
2021/12/14 09:53:28;;;;;;;;;85.00;67.00;;;;;8.75;44.82;99781.88;6160546;28;100387;-64
2021/12/14 09:56:36;;;;;;;;;89.40;72.80;;;;;8.72;45.21;99777.69;6160289;28;97978;-65
2021/12/14 09:59:42;;;;;;;;;84.20;66.40;;;;;8.76;45.22;99778.16;6160146;28;97210;-63
2021/12/14 10:02:49;;;;;;;;;81.50;65.00;;;;;8.81;45.17;99789.16;6150716;28;98833;-64
2021/12/14 10:05:57;;;;;;;;;82.20;65.40;;;;;8.87;45.17;99783.03;6164206;28;97102;-63
2021/12/14 10:09:06;;;;;;;;;78.20;62.40;;;;;8.84;45.17;99772.69;6162249;28;97425;-64
2021/12/14 10:12:29;;;;;;;;;92.40;71.40;;;;;8.94;45.04;99775.91;6145932;28;98386;-64
2021/12/14 10:15:38;;;;;;;;;84.75;68.00;;;;;9.04;44.75;99763.78;6159062;28;97260;-63
2021/12/14 10:18:46;;;;;;;;;83.25;69.00;;;;;9.12;44.86;99765.53;6159382;28;97395;-64
2021/12/14 10:21:54;;;;;;;;;79.40;64.00;;;;;9.22;44.58;99765.22;6152820;28;96730;-65
2021/12/14 10:25:03;;;;;;;;;80.60;66.60;;;;;9.26;44.62;99761.97;6153427;28;97522;-64
2021/12/14 10:28:08;;;;;;;;;79.80;61.60;;;;;9.32;44.38;99768.44;6159267;28;99521;-64
2021/12/14 10:31:17;;;;;;;;;77.00;65.40;;;;;9.26;44.58;99774.56;6155044;28;98290;-64
2021/12/14 10:34:25;;;;;;;;;77.40;63.00;;;;;9.25;44.72;99764.84;6176966;28;97208;-64
2021/12/14 10:37:39;;;;;;;;;84.00;68.40;;;;;9.18;44.80;99759.41;6179649;28;97196;-65
2021/12/14 10:44:07;;;;;;;;;83.60;66.20;;;;;9.30;44.66;99765.94;6150240;28;97432;-64
2021/12/14 10:47:13;;;;;;;;;82.60;67.60;;;;;9.35;44.65;99766.19;6160160;28;97518;-64
2021/12/14 10:50:22;;;;;;;;;80.25;66.50;;;;;9.35;44.46;99763.50;6156256;28;97031;-63
2021/12/14 10:53:26;;;;;;;;;79.80;67.40;;;;;9.19;44.66;99755.66;6141475;28;98021;-64
2021/12/14 10:56:35;;;;;;;;;80.20;66.20;;;;;9.16;44.91;99753.38;6159764;28;98840;-64
2021/12/14 10:59:43;;;;;;;;;84.20;65.00;;;;;9.14;44.84;99750.03;6145173;28;97948;-64
2021/12/14 11:02:46;;;;;;;;;82.80;69.20;;;;;9.18;44.98;99748.66;6145037;28;97801;-64
2021/12/14 11:05:54;;;;;;;;;78.80;67.20;;;;;9.21;44.94;99755.47;6153215;28;97465;-64
2021/12/14 11:09:39;;;;;;;;;80.00;66.00;;;;;9.01;45.00;99712.25;6154920;28;96621;-64
2021/12/14 11:12:29;;;;;;;;;89.00;68.00;;;;;9.21;45.25;99744.72;6151023;28;97453;-63
2021/12/14 11:15:36;;;;;;;;;83.20;65.00;;;;;9.30;45.13;99748.94;6163289;28;97047;-64
2021/12/14 11:18:42;;;;;;;;;86.60;69.40;;;;;9.38;45.09;99744.25;6149703;28;96567;-63
2021/12/14 11:21:47;;;;;;;;;79.60;63.60;;;;;9.47;44.82;99745.81;6145518;28;97376;-64
2021/12/14 11:24:55;;;;;;;;;81.00;66.40;;;;;9.32;45.15;99738.84;6171675;28;96923;-64
2021/12/14 11:28:04;;;;;;;;;86.00;67.60;;;;;9.27;45.24;99739.41;6164325;28;98469;-64
2021/12/14 11:31:13;;;;;;;;;82.00;66.00;;;;;9.31;45.21;99738.00;6165999;28;97954;-64
2021/12/14 11:34:27;;;;;;;;;82.80;67.00;;;;;9.39;45.16;99723.56;6171595;28;96879;-63
2021/12/14 11:37:34;;;;;;;;;80.25;63.00;;;;;9.42;45.19;99729.41;6168847;28;97479;-63
2021/12/14 11:40:38;;;;;;;;;77.60;60.20;;;;;9.55;45.10;99723.28;6165778;28;97462;-64
2021/12/14 11:43:48;;;;;;;;;72.80;52.80;;;;;9.67;45.24;99715.53;6155264;28;96782;-63
2021/12/14 11:47:00;;;;;;;;;58.00;44.80;;;;;9.76;45.59;99722.44;6167654;28;97032;-64
2021/12/14 11:50:08;;;;;;;;;57.00;42.67;;;;;9.82;45.66;99709.00;6159139;28;97170;-63
2021/12/14 11:53:18;;;;;;;;;56.20;43.20;;;;;9.81;45.76;99711.91;6145308;28;97540;-64
2021/12/14 11:56:28;;;;;;;;;53.00;41.00;;;;;9.79;45.69;99722.84;6157123;28;97359;-64
2021/12/14 11:59:31;;;;;;;;;53.20;41.00;;;;;9.71;45.82;99719.50;6171885;28;97258;-63
2021/12/14 12:02:35;;;;;;;;;60.75;44.50;;;;;9.68;45.97;99727.94;6153148;28;96842;-63
2021/12/14 12:05:57;;;;;;;;;56.60;42.00;;;;;9.67;45.92;99721.75;6178865;28;97063;-63
2021/12/14 12:12:31;;;;;;;;;67.60;48.60;;;;;9.68;45.97;99728.78;6189113;28;97037;-64
2021/12/14 12:15:39;;;;;;;;;62.00;47.60;;;;;9.71;45.92;99717.63;6192036;28;96722;-64
2021/12/14 12:19:05;;;;;;;;;66.40;50.80;;;;;9.73;46.05;99726.34;6171514;28;96944;-64
2021/12/14 12:22:11;;;;;;;;;68.50;50.00;;;;;9.73;45.76;99722.81;6172140;28;96867;-64
2021/12/14 12:25:21;;;;;;;;;68.00;50.00;;;;;9.74;45.91;99719.09;6207804;28;97467;-63
2021/12/14 12:28:27;;;;;;;;;65.00;46.80;;;;;9.81;45.87;99715.44;6186061;28;96943;-63
2021/12/14 12:31:45;;;;;;;;;62.00;45.25;;;;;9.86;45.93;99714.84;6189408;28;99690;-63
2021/12/14 12:34:50;;;;;;;;;61.40;46.00;;;;;9.86;45.71;99707.59;6174936;28;97996;-63
2021/12/14 12:37:55;;;;;;;;;63.40;48.00;;;;;9.94;45.75;99702.03;6189402;28;96860;-63
2021/12/14 12:41:07;;;;;;;;;60.60;46.00;;;;;9.99;45.71;99704.13;6189283;28;96669;-63
2021/12/14 12:44:14;;;;;;;;;53.00;41.60;;;;;10.02;45.53;99709.13;6185318;28;97693;-64
2021/12/14 12:47:22;;;;;;;;;53.80;42.80;;;;;10.02;45.74;99716.41;6186715;28;98227;-64
2021/12/14 12:50:26;;;;;;;;;48.80;37.80;;;;;10.02;45.75;99712.66;6189634;28;96563;-64
2021/12/14 12:53:29;;;;;;;;;45.00;36.00;;;;;10.01;45.70;99718.25;6192263;28;97127;-64
2021/12/14 12:56:37;;;;;;;;;50.40;35.80;;;;;10.04;45.53;99700.84;6189363;28;97013;-64
2021/12/14 12:59:48;;;;;;;;;48.50;38.00;;;;;10.06;45.78;99713.09;6190062;28;97578;-64
2021/12/14 13:02:55;;;;;;;;;45.00;36.00;;;;;10.00;45.81;99712.03;6185404;28;97282;-64
2021/12/14 13:06:01;;;;;;;;;53.00;38.00;;;;;9.95;45.64;99690.25;6188411;28;96573;-66
2021/12/14 13:09:04;;;;;;;;;43.40;35.40;;;;;9.97;46.12;99704.31;6151400;28;98440;-64
2021/12/14 13:12:09;;;;;;;;;46.00;35.40;;;;;9.97;46.03;99709.72;6189819;28;97448;-64
2021/12/14 13:15:53;;;;;;;;;44.60;35.00;;;;;10.02;46.21;99711.81;6188512;28;96741;-63
2021/12/14 13:18:59;;;;;;;;;44.75;33.00;;;;;9.99;46.18;99710.38;6176179;28;97428;-64
2021/12/14 13:22:09;;;;;;;;;41.60;34.00;;;;;10.02;46.16;99725.28;6189225;28;97486;-64
2021/12/14 13:25:12;;;;;;;;;47.00;37.60;;;;;10.04;46.27;99731.31;6171761;28;97429;-64
2021/12/14 13:28:17;;;;;;;;;47.00;37.20;;;;;9.93;46.12;99721.91;6170698;28;99675;-64
2021/12/14 13:31:26;;;;;;;;;49.80;39.00;;;;;10.02;46.24;99740.66;6187277;28;97454;-64
2021/12/14 13:34:33;;;;;;;;;48.00;38.50;;;;;10.00;46.25;99743.53;6155903;28;97081;-64
2021/12/14 13:37:40;;;;;;;;;52.00;40.50;;;;;10.03;46.34;99735.03;6190901;28;97099;-65
2021/12/14 13:40:47;;;;;;;;;54.60;42.60;;;;;10.00;46.51;99738.13;6188320;28;96989;-64
2021/12/14 13:43:51;;;;;;;;;46.80;38.00;;;;;9.96;46.67;99731.50;6175044;28;97681;-63
2021/12/14 13:46:55;;;;;;;;;49.80;39.00;;;;;9.91;46.92;99729.38;6187963;28;97246;-64
2021/12/14 13:50:01;;;;;;;;;47.00;38.00;;;;;9.91;46.93;99739.31;6170910;28;97482;-63
2021/12/14 13:53:05;;;;;;;;;50.75;39.50;;;;;9.87;47.03;99740.75;6191954;28;98304;-64
2021/12/14 13:56:12;;;;;;;;;50.00;37.33;;;;;9.82;47.15;99741.31;6187160;28;97472;-63
2021/12/14 13:59:18;;;;;;;;;50.50;39.50;;;;;9.82;47.21;99740.50;6190324;28;96751;-62
2021/12/14 14:02:21;;;;;;;;;55.50;42.50;;;;;9.84;47.19;99747.34;6153265;28;99410;-62
2021/12/14 14:05:26;;;;;;;;;50.75;39.75;;;;;9.84;47.22;99743.81;6190327;28;97555;-63
2021/12/14 14:08:33;;;;;;;;;53.00;40.60;;;;;9.81;47.28;99745.06;6169645;28;96617;-65
2021/12/14 14:11:40;;;;;;;;;50.60;40.00;;;;;9.81;47.20;99738.84;6186323;28;96976;-64
2021/12/14 14:14:46;;;;;;;;;48.00;38.25;;;;;9.82;47.25;99729.72;6180257;28;97592;-64
2021/12/14 14:17:53;;;;;;;;;48.20;38.00;;;;;9.80;47.45;99737.16;6178222;28;97726;-65
2021/12/14 14:20:57;;;;;;;;;45.00;36.00;;;;;9.78;47.74;99737.34;6172853;28;97377;-64
2021/12/14 14:24:01;;;;;;;;;42.80;33.00;;;;;9.75;47.84;99734.22;6176912;28;100807;-64
2021/12/14 14:27:08;;;;;;;;;41.00;31.00;;;;;9.77;47.79;99738.41;6135926;28;97023;-64
2021/12/14 14:30:39;;;;;;;;;40.60;33.80;;;;;9.78;48.12;99731.13;6183372;28;97447;-64
2021/12/14 14:33:50;;;;;;;;;37.40;32.00;;;;;9.76;48.25;99723.25;6169286;28;98421;-63
2021/12/14 14:36:59;;;;;;;;;40.00;32.00;;;;;9.67;48.71;99718.22;6188275;28;97499;-64
2021/12/14 14:40:07;;;;;;;;;32.80;28.00;;;;;9.51;48.83;99717.47;6188321;28;96970;-64
2021/12/14 14:43:11;;;;;;;;;41.00;32.00;;;;;9.39;49.17;99718.19;6191343;28;97513;-64
2021/12/14 14:46:49;;;;;;;;;39.40;32.00;;;;;9.29;49.35;99718.50;6189577;28;96555;-63
2021/12/14 14:50:21;;;;;;;;;41.50;34.00;;;;;9.22;49.45;99728.41;6172747;28;96914;-66
2021/12/14 14:53:33;;;;;;;;;44.75;34.75;;;;;9.14;49.74;99725.81;6149709;28;98357;-67